Main page
METAR-TAF:

METAR-TAF

Airports :

Houston Executive Airport

Houston, Texas, United States

latitude: 29-48-18N, longitude: 095-53-52W, elevation: 167 ft

Current weather observation

The report was made 17 minutes ago, at 12:15 UTC
Wind 6 mph from the Southeast
Temperature 79°F
Humidity 94%
Pressure 29.85 in. Hg
Visibility: 7 miles
Clear sky

METAR: KTME 171215Z AUTO 13005KT 7SM CLR 26/25 A2985 RMK AO2

Time: 06:32 (12:32 UTC)


TAF: missing

Weather observations and forecasts of more than 4000 airports (METAR and TAF reports).

The available stations are represented by yellow and red dots on the map.

Hover mouse over dot to see the name of the station.

Then click to see weather observations and forecasts.

To change the map : click on the green buttons with a black cross to zoom in, on the green button with a dash to zoom out, or on the green arrows for adjacent maps.


METAR-TAF: